sensor_id;sensor_type;location;lat;lon;timestamp;pressure;altitude;pressure_sealevel;temperature;humidity
39243;BME280;29823;47.404;8.566;2022-08-07T00:00:23;96876.91;;;16.10;100.00
39243;BME280;29823;47.404;8.566;2022-08-07T00:02:51;96882.81;;;16.07;100.00
39243;BME280;29823;47.404;8.566;2022-08-07T00:05:21;96883.06;;;16.06;100.00
39243;BME280;29823;47.404;8.566;2022-08-07T00:07:51;96881.19;;;16.06;100.00
39243;BME280;29823;47.404;8.566;2022-08-07T00:10:26;96882.88;;;16.12;100.00
39243;BME280;29823;47.404;8.566;2022-08-07T00:12:57;96883.97;;;16.16;100.00
39243;BME280;29823;47.404;8.566;2022-08-07T00:15:28;96880.28;;;16.27;100.00
39243;BME280;29823;47.404;8.566;2022-08-07T00:18:12;96867.22;;;16.09;100.00
39243;BME280;29823;47.404;8.566;2022-08-07T00:20:49;96868.78;;;16.05;100.00
39243;BME280;29823;47.404;8.566;2022-08-07T00:23:19;96865.06;;;16.11;100.00
39243;BME280;29823;47.404;8.566;2022-08-07T00:25:47;96863.38;;;16.05;100.00
39243;BME280;29823;47.404;8.566;2022-08-07T00:28:26;96862.03;;;16.03;100.00
39243;BME280;29823;47.404;8.566;2022-08-07T00:31:00;96852.56;;;16.00;100.00
39243;BME280;29823;47.404;8.566;2022-08-07T00:33:31;96844.63;;;15.89;100.00
39243;BME280;29823;47.404;8.566;2022-08-07T00:35:59;96837.41;;;15.94;100.00
39243;BME280;29823;47.404;8.566;2022-08-07T00:38:28;96845.31;;;16.06;100.00
39243;BME280;29823;47.404;8.566;2022-08-07T00:40:59;96841.84;;;16.10;100.00
39243;BME280;29823;47.404;8.566;2022-08-07T00:43:27;96843.97;;;16.08;100.00
39243;BME280;29823;47.404;8.566;2022-08-07T00:46:15;96837.41;;;15.94;100.00
39243;BME280;29823;47.404;8.566;2022-08-07T00:48:43;96845.00;;;16.02;100.00
39243;BME280;29823;47.404;8.566;2022-08-07T00:51:15;96838.25;;;16.00;100.00
39243;BME280;29823;47.404;8.566;2022-08-07T00:53:44;96837.09;;;15.91;100.00
39243;BME280;29823;47.404;8.566;2022-08-07T00:56:21;96831.97;;;15.89;100.00
39243;BME280;29823;47.404;8.566;2022-08-07T00:58:56;96831.19;;;15.94;100.00
39243;BME280;29823;47.404;8.566;2022-08-07T01:01:23;96832.50;;;15.91;100.00
39243;BME280;29823;47.404;8.566;2022-08-07T01:03:53;96828.78;;;15.97;100.00
39243;BME280;29823;47.404;8.566;2022-08-07T01:06:25;96826.81;;;15.88;100.00
39243;BME280;29823;47.404;8.566;2022-08-07T01:08:56;96821.13;;;15.84;100.00
39243;BME280;29823;47.404;8.566;2022-08-07T01:11:27;96824.94;;;15.88;100.00
39243;BME280;29823;47.404;8.566;2022-08-07T01:14:15;96824.56;;;16.06;100.00
39243;BME280;29823;47.404;8.566;2022-08-07T01:16:47;96816.00;;;16.19;100.00
39243;BME280;29823;47.404;8.566;2022-08-07T01:19:17;96808.63;;;16.05;100.00
39243;BME280;29823;47.404;8.566;2022-08-07T01:21:49;96814.66;;;16.17;100.00
39243;BME280;29823;47.404;8.566;2022-08-07T01:24:19;96808.31;;;16.01;100.00
39243;BME280;29823;47.404;8.566;2022-08-07T01:26:48;96805.41;;;16.08;100.00
39243;BME280;29823;47.404;8.566;2022-08-07T01:29:18;96810.44;;;15.94;100.00
39243;BME280;29823;47.404;8.566;2022-08-07T01:31:48;96803.09;;;15.85;100.00
39243;BME280;29823;47.404;8.566;2022-08-07T01:34:16;96806.78;;;15.79;100.00
39243;BME280;29823;47.404;8.566;2022-08-07T01:36:47;96804.34;;;15.77;100.00
39243;BME280;29823;47.404;8.566;2022-08-07T01:39:23;96805.53;;;15.91;100.00
39243;BME280;29823;47.404;8.566;2022-08-07T01:42:06;96788.81;;;15.89;100.00
39243;BME280;29823;47.404;8.566;2022-08-07T01:44:55;96794.66;;;15.81;100.00
39243;BME280;29823;47.404;8.566;2022-08-07T01:47:23;96797.66;;;15.80;100.00
39243;BME280;29823;47.404;8.566;2022-08-07T01:50:11;96796.53;;;15.76;100.00
39243;BME280;29823;47.404;8.566;2022-08-07T01:52:42;96793.56;;;15.77;100.00
39243;BME280;29823;47.404;8.566;2022-08-07T01:55:23;96800.78;;;15.72;100.00
39243;BME280;29823;47.404;8.566;2022-08-07T01:57:56;96800.53;;;15.73;100.00
39243;BME280;29823;47.404;8.566;2022-08-07T02:00:33;96798.88;;;15.67;100.00
39243;BME280;29823;47.404;8.566;2022-08-07T02:03:17;96796.69;;;15.64;100.00
39243;BME280;29823;47.404;8.566;2022-08-07T02:05:54;96798.97;;;15.77;100.00
39243;BME280;29823;47.404;8.566;2022-08-07T02:08:29;96795.69;;;15.75;100.00
39243;BME280;29823;47.404;8.566;2022-08-07T02:11:03;96804.75;;;15.64;100.00
39243;BME280;29823;47.404;8.566;2022-08-07T02:13:32;96790.75;;;15.62;100.00
39243;BME280;29823;47.404;8.566;2022-08-07T02:16:21;96782.09;;;15.60;100.00
39243;BME280;29823;47.404;8.566;2022-08-07T02:19:00;96804.84;;;15.74;100.00
39243;BME280;29823;47.404;8.566;2022-08-07T02:21:31;96804.34;;;15.77;100.00
39243;BME280;29823;47.404;8.566;2022-08-07T02:24:22;96811.06;;;15.75;100.00
39243;BME280;29823;47.404;8.566;2022-08-07T02:26:55;96812.94;;;15.74;100.00
39243;BME280;29823;47.404;8.566;2022-08-07T02:29:27;96808.53;;;15.63;100.00
39243;BME280;29823;47.404;8.566;2022-08-07T02:31:57;96808.53;;;15.63;100.00
39243;BME280;29823;47.404;8.566;2022-08-07T02:34:26;96803.97;;;15.64;100.00
39243;BME280;29823;47.404;8.566;2022-08-07T02:36:57;96805.53;;;15.60;100.00
39243;BME280;29823;47.404;8.566;2022-08-07T02:39:27;96801.47;;;15.57;100.00
39243;BME280;29823;47.404;8.566;2022-08-07T02:42:16;96798.47;;;15.54;100.00
39243;BME280;29823;47.404;8.566;2022-08-07T02:44:47;96798.97;;;15.51;100.00
39243;BME280;29823;47.404;8.566;2022-08-07T02:47:17;96797.59;;;15.48;100.00
39243;BME280;29823;47.404;8.566;2022-08-07T02:49:49;96801.97;;;15.54;100.00
39243;BME280;29823;47.404;8.566;2022-08-07T02:52:31;96792.78;;;15.50;100.00
39243;BME280;29823;47.404;8.566;2022-08-07T02:55:04;96781.44;;;15.48;100.00
39243;BME280;29823;47.404;8.566;2022-08-07T02:57:57;96780.38;;;15.49;100.00
39243;BME280;29823;47.404;8.566;2022-08-07T03:00:32;96780.97;;;15.56;100.00
39243;BME280;29823;47.404;8.566;2022-08-07T03:03:01;96776.72;;;15.65;100.00
39243;BME280;29823;47.404;8.566;2022-08-07T03:05:32;96784.81;;;15.65;100.00
39243;BME280;29823;47.404;8.566;2022-08-07T03:08:04;96770.78;;;15.63;100.00
39243;BME280;29823;47.404;8.566;2022-08-07T03:10:38;96784.38;;;15.73;100.00
39243;BME280;29823;47.404;8.566;2022-08-07T03:13:13;96774.22;;;15.85;100.00
39243;BME280;29823;47.404;8.566;2022-08-07T03:15:45;96783.09;;;15.81;100.00
39243;BME280;29823;47.404;8.566;2022-08-07T03:18:24;96779.91;;;15.89;100.00
39243;BME280;29823;47.404;8.566;2022-08-07T03:21:02;96791.06;;;16.02;100.00
39243;BME280;29823;47.404;8.566;2022-08-07T03:23:36;96784.13;;;16.11;100.00
39243;BME280;29823;47.404;8.566;2022-08-07T03:26:29;96776.53;;;16.03;100.00
39243;BME280;29823;47.404;8.566;2022-08-07T03:29:00;96781.94;;;16.08;100.00
39243;BME280;29823;47.404;8.566;2022-08-07T03:31:30;96784.72;;;16.18;100.00
39243;BME280;29823;47.404;8.566;2022-08-07T03:34:09;96780.28;;;16.02;100.00
39243;BME280;29823;47.404;8.566;2022-08-07T03:36:47;96787.00;;;16.00;100.00
39243;BME280;29823;47.404;8.566;2022-08-07T03:39:16;96774.28;;;15.95;100.00
39243;BME280;29823;47.404;8.566;2022-08-07T03:42:08;96778.44;;;16.08;100.00
39243;BME280;29823;47.404;8.566;2022-08-07T03:44:37;96781.91;;;16.03;100.00
39243;BME280;29823;47.404;8.566;2022-08-07T03:47:06;96783.03;;;16.12;100.00
39243;BME280;29823;47.404;8.566;2022-08-07T03:49:40;96782.78;;;16.14;100.00
39243;BME280;29823;47.404;8.566;2022-08-07T03:52:20;96785.31;;;16.25;100.00
39243;BME280;29823;47.404;8.566;2022-08-07T03:54:52;96780.94;;;16.19;100.00
39243;BME280;29823;47.404;8.566;2022-08-07T03:57:34;96781.75;;;16.20;100.00
39243;BME280;29823;47.404;8.566;2022-08-07T04:00:23;96782.59;;;16.20;100.00
39243;BME280;29823;47.404;8.566;2022-08-07T04:02:56;96781.03;;;16.34;100.00
39243;BME280;29823;47.404;8.566;2022-08-07T04:05:24;96786.53;;;16.44;100.00
39243;BME280;29823;47.404;8.566;2022-08-07T04:08:09;96789.66;;;16.31;100.00
39243;BME280;29823;47.404;8.566;2022-08-07T04:10:36;96785.91;;;16.37;100.00
39243;BME280;29823;47.404;8.566;2022-08-07T04:13:11;96784.28;;;16.31;100.00
39243;BME280;29823;47.404;8.566;2022-08-07T04:15:41;96770.16;;;16.24;100.00
39243;BME280;29823;47.404;8.566;2022-08-07T04:18:14;96762.13;;;16.34;100.00
39243;BME280;29823;47.404;8.566;2022-08-07T04:21:03;96793.84;;;16.54;100.00
39243;BME280;29823;47.404;8.566;2022-08-07T04:23:33;96785.34;;;16.35;100.00
39243;BME280;29823;47.404;8.566;2022-08-07T04:26:21;96803.03;;;16.53;100.00
39243;BME280;29823;47.404;8.566;2022-08-07T04:28:55;96802.25;;;16.52;100.00
39243;BME280;29823;47.404;8.566;2022-08-07T04:31:24;96794.97;;;16.58;100.00
39243;BME280;29823;47.404;8.566;2022-08-07T04:34:12;96803.31;;;16.56;100.00
39243;BME280;29823;47.404;8.566;2022-08-07T04:36:42;96804.72;;;16.64;100.00
39243;BME280;29823;47.404;8.566;2022-08-07T04:39:14;96813.13;;;16.72;100.00
39243;BME280;29823;47.404;8.566;2022-08-07T04:41:44;96805.31;;;16.71;100.00
39243;BME280;29823;47.404;8.566;2022-08-07T04:44:17;96814.78;;;16.78;100.00
39243;BME280;29823;47.404;8.566;2022-08-07T04:46:52;96817.50;;;16.83;100.00
39243;BME280;29823;47.404;8.566;2022-08-07T04:49:44;96810.75;;;16.81;100.00
39243;BME280;29823;47.404;8.566;2022-08-07T04:52:35;96812.16;;;16.93;100.00
39243;BME280;29823;47.404;8.566;2022-08-07T04:55:22;96819.97;;;16.90;100.00
39243;BME280;29823;47.404;8.566;2022-08-07T04:58:18;96820.81;;;16.95;100.00
39243;BME280;29823;47.404;8.566;2022-08-07T05:01:13;96819.50;;;17.08;100.00
39243;BME280;29823;47.404;8.566;2022-08-07T05:03:47;96810.91;;;17.16;100.00
39243;BME280;29823;47.404;8.566;2022-08-07T05:06:36;96810.06;;;17.10;100.00
39243;BME280;29823;47.404;8.566;2022-08-07T05:09:23;96814.38;;;17.06;100.00
39243;BME280;29823;47.404;8.566;2022-08-07T05:12:15;96804.59;;;16.90;100.00
39243;BME280;29823;47.404;8.566;2022-08-07T05:14:57;96818.44;;;17.04;100.00
39243;BME280;29823;47.404;8.566;2022-08-07T05:17:32;96817.06;;;17.01;100.00
39243;BME280;29823;47.404;8.566;2022-08-07T05:20:24;96819.19;;;16.94;100.00
39243;BME280;29823;47.404;8.566;2022-08-07T05:23:00;96825.72;;;17.03;100.00
39243;BME280;29823;47.404;8.566;2022-08-07T05:25:31;96824.88;;;17.03;100.00
39243;BME280;29823;47.404;8.566;2022-08-07T05:28:20;96823.03;;;17.08;100.00
39243;BME280;29823;47.404;8.566;2022-08-07T05:30:54;96823.06;;;17.18;100.00
39243;BME280;29823;47.404;8.566;2022-08-07T05:33:26;96822.56;;;17.31;100.00
39243;BME280;29823;47.404;8.566;2022-08-07T05:35:55;96824.50;;;17.36;100.00
39243;BME280;29823;47.404;8.566;2022-08-07T05:38:23;96821.50;;;17.37;100.00
39243;BME280;29823;47.404;8.566;2022-08-07T05:41:12;96824.25;;;17.42;100.00
39243;BME280;29823;47.404;8.566;2022-08-07T05:43:46;96828.63;;;17.58;100.00
39243;BME280;29823;47.404;8.566;2022-08-07T05:46:36;96827.84;;;17.63;100.00
39243;BME280;29823;47.404;8.566;2022-08-07T05:49:07;96828.09;;;17.66;100.00
39243;BME280;29823;47.404;8.566;2022-08-07T05:51:38;96821.06;;;17.80;100.00
39243;BME280;29823;47.404;8.566;2022-08-07T05:54:07;96829.75;;;17.77;100.00
39243;BME280;29823;47.404;8.566;2022-08-07T05:56:56;96831.09;;;17.80;100.00
39243;BME280;29823;47.404;8.566;2022-08-07T05:59:25;96829.19;;;17.85;100.00
39243;BME280;29823;47.404;8.566;2022-08-07T06:02:06;96841.66;;;17.76;100.00
39243;BME280;29823;47.404;8.566;2022-08-07T06:04:38;96847.84;;;17.77;100.00
39243;BME280;29823;47.404;8.566;2022-08-07T06:07:16;96838.41;;;17.94;100.00
39243;BME280;29823;47.404;8.566;2022-08-07T06:10:05;96825.94;;;17.73;100.00
39243;BME280;29823;47.404;8.566;2022-08-07T06:12:41;96845.44;;;17.95;100.00
39243;BME280;29823;47.404;8.566;2022-08-07T06:15:10;96841.09;;;17.89;100.00
39243;BME280;29823;47.404;8.566;2022-08-07T06:17:42;96842.19;;;17.83;100.00
39243;BME280;29823;47.404;8.566;2022-08-07T06:20:22;96839.50;;;17.98;100.00
39243;BME280;29823;47.404;8.566;2022-08-07T06:23:11;96848.16;;;18.05;100.00
39243;BME280;29823;47.404;8.566;2022-08-07T06:25:59;96845.19;;;18.02;100.00
39243;BME280;29823;47.404;8.566;2022-08-07T06:28:27;96846.81;;;18.03;100.00
39243;BME280;29823;47.404;8.566;2022-08-07T06:30:55;96831.91;;;17.95;100.00
39243;BME280;29823;47.404;8.566;2022-08-07T06:33:24;96840.03;;;18.05;100.00
39243;BME280;29823;47.404;8.566;2022-08-07T06:35:56;96840.88;;;18.06;100.00
39243;BME280;29823;47.404;8.566;2022-08-07T06:38:39;96842.22;;;18.03;100.00
39243;BME280;29823;47.404;8.566;2022-08-07T06:41:32;96838.16;;;18.11;100.00
39243;BME280;29823;47.404;8.566;2022-08-07T06:44:23;96838.97;;;18.11;100.00
39243;BME280;29823;47.404;8.566;2022-08-07T06:46:59;96849.25;;;18.14;100.00
39243;BME280;29823;47.404;8.566;2022-08-07T06:49:37;96846.00;;;17.92;100.00
39243;BME280;29823;47.404;8.566;2022-08-07T06:52:26;96841.66;;;18.01;100.00
39243;BME280;29823;47.404;8.566;2022-08-07T06:55:02;96838.41;;;17.94;100.00
39243;BME280;29823;47.404;8.566;2022-08-07T06:57:50;96841.13;;;18.14;100.00
39243;BME280;29823;47.404;8.566;2022-08-07T07:00:24;96833.53;;;18.21;100.00
39243;BME280;29823;47.404;8.566;2022-08-07T07:02:53;96827.31;;;18.31;100.00
39243;BME280;29823;47.404;8.566;2022-08-07T07:05:24;96828.13;;;18.01;100.00
39243;BME280;29823;47.404;8.566;2022-08-07T07:08:13;96830.31;;;18.19;100.00
39243;BME280;29823;47.404;8.566;2022-08-07T07:10:51;96828.66;;;18.28;100.00
39243;BME280;29823;47.404;8.566;2022-08-07T07:13:28;96836.25;;;18.26;100.00
39243;BME280;29823;47.404;8.566;2022-08-07T07:16:17;96834.63;;;18.15;100.00
39243;BME280;29823;47.404;8.566;2022-08-07T07:18:50;96831.41;;;18.38;100.00
39243;BME280;29823;47.404;8.566;2022-08-07T07:21:22;96825.44;;;18.31;100.00
39243;BME280;29823;47.404;8.566;2022-08-07T07:24:14;96832.72;;;18.26;100.00
39243;BME280;29823;47.404;8.566;2022-08-07T07:26:43;96829.22;;;18.45;100.00
39243;BME280;29823;47.404;8.566;2022-08-07T07:29:20;96815.41;;;18.57;100.00
39243;BME280;29823;47.404;8.566;2022-08-07T07:32:11;96822.72;;;18.51;100.00
39243;BME280;29823;47.404;8.566;2022-08-07T07:34:43;96830.56;;;18.18;100.00
39243;BME280;29823;47.404;8.566;2022-08-07T07:37:15;96827.06;;;18.42;100.00
39243;BME280;29823;47.404;8.566;2022-08-07T07:40:06;96824.88;;;18.49;100.00
39243;BME280;29823;47.404;8.566;2022-08-07T07:42:42;96826.50;;;18.40;100.00
39243;BME280;29823;47.404;8.566;2022-08-07T07:45:20;96835.19;;;18.42;100.00
39243;BME280;29823;47.404;8.566;2022-08-07T07:48:14;96835.47;;;18.41;100.00
39243;BME280;29823;47.404;8.566;2022-08-07T07:51:01;96837.34;;;18.20;100.00
39243;BME280;29823;47.404;8.566;2022-08-07T07:53:36;96840.56;;;18.12;100.00
39243;BME280;29823;47.404;8.566;2022-08-07T07:56:19;96840.31;;;18.09;100.00
39243;BME280;29823;47.404;8.566;2022-08-07T07:58:57;96845.47;;;18.20;100.00
39243;BME280;29823;47.404;8.566;2022-08-07T08:01:28;96841.41;;;18.23;100.00
39243;BME280;29823;47.404;8.566;2022-08-07T08:04:17;96840.56;;;18.12;100.00
39243;BME280;29823;47.404;8.566;2022-08-07T08:06:52;96846.00;;;18.12;100.00
39243;BME280;29823;47.404;8.566;2022-08-07T08:09:24;96849.25;;;18.24;100.00
39243;BME280;29823;47.404;8.566;2022-08-07T08:11:56;96838.97;;;18.26;100.00
39243;BME280;29823;47.404;8.566;2022-08-07T08:14:30;96825.16;;;18.13;100.00
39243;BME280;29823;47.404;8.566;2022-08-07T08:17:02;96847.09;;;18.16;100.00
39243;BME280;29823;47.404;8.566;2022-08-07T08:19:54;96850.31;;;18.28;100.00
39243;BME280;29823;47.404;8.566;2022-08-07T08:22:45;96844.41;;;18.36;100.00
39243;BME280;29823;47.404;8.566;2022-08-07T08:25:36;96844.41;;;18.36;100.00
39243;BME280;29823;47.404;8.566;2022-08-07T08:28:25;96829.50;;;18.24;100.00
39243;BME280;29823;47.404;8.566;2022-08-07T08:31:07;96846.81;;;18.43;100.00
39243;BME280;29823;47.404;8.566;2022-08-07T08:33:42;96845.19;;;18.42;100.00
39243;BME280;29823;47.404;8.566;2022-08-07T08:36:23;96850.34;;;18.33;100.00
39243;BME280;29823;47.404;8.566;2022-08-07T08:38:57;96853.88;;;18.34;100.00
39243;BME280;29823;47.404;8.566;2022-08-07T08:41:31;96839.25;;;18.50;100.00
39243;BME280;29823;47.404;8.566;2022-08-07T08:44:29;96851.94;;;18.29;100.00
39243;BME280;29823;47.404;8.566;2022-08-07T08:47:13;96849.25;;;18.54;100.00
39243;BME280;29823;47.404;8.566;2022-08-07T08:49:54;96853.88;;;18.39;100.00
39243;BME280;29823;47.404;8.566;2022-08-07T08:52:33;96854.66;;;18.59;100.00
39243;BME280;29823;47.404;8.566;2022-08-07T08:55:21;96857.13;;;18.56;100.00
39243;BME280;29823;47.404;8.566;2022-08-07T08:58:15;96865.75;;;18.68;100.00
39243;BME280;29823;47.404;8.566;2022-08-07T09:00:59;96858.47;;;18.58;100.00
39243;BME280;29823;47.404;8.566;2022-08-07T09:03:49;96844.66;;;18.35;100.00
39243;BME280;29823;47.404;8.566;2022-08-07T09:06:31;96856.59;;;18.44;100.00
39243;BME280;29823;47.404;8.566;2022-08-07T09:09:08;96852.22;;;18.58;100.00
39243;BME280;29823;47.404;8.566;2022-08-07T09:12:03;96857.63;;;18.63;100.00
39243;BME280;29823;47.404;8.566;2022-08-07T09:15:02;96860.06;;;18.74;100.00
39243;BME280;29823;47.404;8.566;2022-08-07T09:18:05;96859.78;;;18.76;100.00
39243;BME280;29823;47.404;8.566;2022-08-07T09:20:58;96861.41;;;18.72;100.00
39243;BME280;29823;47.404;8.566;2022-08-07T09:23:35;96860.81;;;18.95;100.00
39243;BME280;29823;47.404;8.566;2022-08-07T09:26:36;96870.81;;;19.04;100.00
39243;BME280;29823;47.404;8.566;2022-08-07T09:29:20;96861.16;;;18.78;100.00
39243;BME280;29823;47.404;8.566;2022-08-07T09:32:17;96871.41;;;18.86;100.00
39243;BME280;29823;47.404;8.566;2022-08-07T09:35:04;96863.22;;;19.11;100.00
39243;BME280;29823;47.404;8.566;2022-08-07T09:38:02;96871.34;;;19.21;100.00
39243;BME280;29823;47.404;8.566;2022-08-07T09:40:46;96869.69;;;19.10;100.00
39243;BME280;29823;47.404;8.566;2022-08-07T09:43:26;96869.69;;;19.10;100.00
39243;BME280;29823;47.404;8.566;2022-08-07T09:46:25;96862.38;;;19.26;100.00
39243;BME280;29823;47.404;8.566;2022-08-07T09:49:28;96857.22;;;19.24;100.00
39243;BME280;29823;47.404;8.566;2022-08-07T09:52:25;96858.72;;;19.55;100.00
39243;BME280;29823;47.404;8.566;2022-08-07T09:55:04;96870.69;;;19.49;100.00
39243;BME280;29823;47.404;8.566;2022-08-07T09:58:01;96861.03;;;19.08;100.00
39243;BME280;29823;47.404;8.566;2022-08-07T10:00:56;96864.66;;;19.57;100.00
39243;BME280;29823;47.404;8.566;2022-08-07T10:03:44;96862.88;;;19.38;100.00
39243;BME280;29823;47.404;8.566;2022-08-07T10:06:48;96858.69;;;19.60;100.00
39243;BME280;29823;47.404;8.566;2022-08-07T10:09:40;96850.78;;;19.69;100.00
39243;BME280;29823;47.404;8.566;2022-08-07T10:12:46;96866.13;;;19.88;100.00
39243;BME280;29823;47.404;8.566;2022-08-07T10:15:37;96853.84;;;19.47;100.00
39243;BME280;29823;47.404;8.566;2022-08-07T10:18:22;96863.03;;;19.56;100.00
39243;BME280;29823;47.404;8.566;2022-08-07T10:21:05;96853.75;;;19.67;100.00
39243;BME280;29823;47.404;8.566;2022-08-07T10:24:06;96855.44;;;20.02;100.00
39243;BME280;29823;47.404;8.566;2022-08-07T10:26:54;96862.88;;;19.86;100.00
39243;BME280;29823;47.404;8.566;2022-08-07T10:29:41;96851.44;;;19.89;100.00
39243;BME280;29823;47.404;8.566;2022-08-07T10:32:29;96857.56;;;20.10;100.00
39243;BME280;29823;47.404;8.566;2022-08-07T10:35:24;96866.44;;;20.25;100.00
39243;BME280;29823;47.404;8.566;2022-08-07T10:38:21;96858.13;;;20.45;100.00
39243;BME280;29823;47.404;8.566;2022-08-07T10:41:14;96859.81;;;20.70;100.00
39243;BME280;29823;47.404;8.566;2022-08-07T10:44:16;96859.63;;;20.61;100.00
39243;BME280;29823;47.404;8.566;2022-08-07T10:47:12;96854.59;;;20.45;100.00
39243;BME280;29823;47.404;8.566;2022-08-07T10:49:57;96853.84;;;20.34;100.00
39243;BME280;29823;47.404;8.566;2022-08-07T10:52:36;96856.16;;;20.51;100.00
39243;BME280;29823;47.404;8.566;2022-08-07T10:55:17;96857.53;;;20.48;100.00
39243;BME280;29823;47.404;8.566;2022-08-07T10:58:30;96857.53;;;20.48;100.00
39243;BME280;29823;47.404;8.566;2022-08-07T11:01:18;96853.59;;;20.64;100.00
39243;BME280;29823;47.404;8.566;2022-08-07T11:03:55;96851.44;;;20.33;100.00
39243;BME280;29823;47.404;8.566;2022-08-07T11:06:49;96858.28;;;20.59;100.00
39243;BME280;29823;47.404;8.566;2022-08-07T11:09:24;96852.44;;;20.42;100.00
39243;BME280;29823;47.404;8.566;2022-08-07T11:12:15;96857.44;;;20.58;100.00
39243;BME280;29823;47.404;8.566;2022-08-07T11:15:02;96845.28;;;20.79;100.00
39243;BME280;29823;47.404;8.566;2022-08-07T11:17:47;96843.00;;;20.63;100.00
39243;BME280;29823;47.404;8.566;2022-08-07T11:20:22;96838.53;;;21.05;100.00
39243;BME280;29823;47.404;8.566;2022-08-07T11:23:06;96841.00;;;21.02;100.00
39243;BME280;29823;47.404;8.566;2022-08-07T11:25:37;96824.94;;;21.05;100.00
39243;BME280;29823;47.404;8.566;2022-08-07T11:28:18;96841.25;;;21.47;100.00
39243;BME280;29823;47.404;8.566;2022-08-07T11:30:53;96824.97;;;21.24;100.00
39243;BME280;29823;47.404;8.566;2022-08-07T11:33:33;96829.28;;;21.48;100.00
39243;BME280;29823;47.404;8.566;2022-08-07T11:36:38;96829.75;;;22.11;100.00
39243;BME280;29823;47.404;8.566;2022-08-07T11:39:13;96829.59;;;21.65;100.00
39243;BME280;29823;47.404;8.566;2022-08-07T11:41:50;96818.16;;;21.63;100.00
39243;BME280;29823;47.404;8.566;2022-08-07T11:44:35;96823.63;;;22.00;100.00
39243;BME280;29823;47.404;8.566;2022-08-07T11:47:40;96820.06;;;22.37;100.00
39243;BME280;29823;47.404;8.566;2022-08-07T11:50:34;96814.22;;;22.43;100.00
39243;BME280;29823;47.404;8.566;2022-08-07T11:53:33;96809.59;;;22.12;100.00
39243;BME280;29823;47.404;8.566;2022-08-07T11:56:34;96810.44;;;22.26;100.00
39243;BME280;29823;47.404;8.566;2022-08-07T11:59:08;96817.53;;;22.59;100.00
39243;BME280;29823;47.404;8.566;2022-08-07T12:02:01;96809.66;;;22.39;100.00
39243;BME280;29823;47.404;8.566;2022-08-07T12:05:04;96802.41;;;22.34;100.00
39243;BME280;29823;47.404;8.566;2022-08-07T12:07:48;96810.19;;;22.86;100.00
39243;BME280;29823;47.404;8.566;2022-08-07T12:10:30;96800.75;;;22.65;100.00
39243;BME280;29823;47.404;8.566;2022-08-07T12:13:11;96806.88;;;22.44;100.00
39243;BME280;29823;47.404;8.566;2022-08-07T12:15:47;96807.50;;;22.54;100.00
39243;BME280;29823;47.404;8.566;2022-08-07T12:18:37;96793.41;;;22.66;100.00
39243;BME280;29823;47.404;8.566;2022-08-07T12:21:34;96792.00;;;22.36;100.00
39243;BME280;29823;47.404;8.566;2022-08-07T12:24:31;96796.69;;;22.49;100.00
39243;BME280;29823;47.404;8.566;2022-08-07T12:27:08;96787.97;;;22.79;100.00
39243;BME280;29823;47.404;8.566;2022-08-07T12:29:45;96779.84;;;22.47;100.00
39243;BME280;29823;47.404;8.566;2022-08-07T12:32:20;96782.34;;;23.03;100.00
39243;BME280;29823;47.404;8.566;2022-08-07T12:34:57;96783.75;;;22.87;100.00
39243;BME280;29823;47.404;8.566;2022-08-07T12:37:27;96783.97;;;23.31;100.00
39243;BME280;29823;47.404;8.566;2022-08-07T12:40:22;96781.53;;;23.29;97.08
39243;BME280;29823;47.404;8.566;2022-08-07T12:43:12;96780.97;;;22.46;100.00
39243;BME280;29823;47.404;8.566;2022-08-07T12:46:12;96781.31;;;22.85;100.00
39243;BME280;29823;47.404;8.566;2022-08-07T12:49:04;96774.03;;;22.67;100.00
39243;BME280;29823;47.404;8.566;2022-08-07T12:51:57;96769.00;;;23.01;100.00
39243;BME280;29823;47.404;8.566;2022-08-07T12:54:45;96774.53;;;22.96;100.00
39243;BME280;29823;47.404;8.566;2022-08-07T12:57:33;96775.84;;;23.12;100.00
39243;BME280;29823;47.404;8.566;2022-08-07T13:00:30;96773.75;;;23.09;99.94
39243;BME280;29823;47.404;8.566;2022-08-07T13:06:37;96775.63;;;23.49;95.52
39243;BME280;29823;47.404;8.566;2022-08-07T13:09:42;96776.06;;;23.78;97.09
39243;BME280;29823;47.404;8.566;2022-08-07T13:12:43;96770.72;;;23.73;91.33
39243;BME280;29823;47.404;8.566;2022-08-07T13:15:22;96758.88;;;23.42;100.00
39243;BME280;29823;47.404;8.566;2022-08-07T13:18:05;96765.06;;;23.70;96.12
39243;BME280;29823;47.404;8.566;2022-08-07T13:20:58;96765.25;;;23.73;93.12
39243;BME280;29823;47.404;8.566;2022-08-07T13:23:33;96763.75;;;24.03;92.58
39243;BME280;29823;47.404;8.566;2022-08-07T13:26:30;96768.97;;;23.77;90.79
39243;BME280;29823;47.404;8.566;2022-08-07T13:29:09;96756.56;;;23.09;97.04
39243;BME280;29823;47.404;8.566;2022-08-07T13:31:42;96763.13;;;23.35;100.00
39243;BME280;29823;47.404;8.566;2022-08-07T13:34:32;96752.44;;;22.84;99.74
39243;BME280;29823;47.404;8.566;2022-08-07T13:37:07;96748.97;;;23.06;100.00
39243;BME280;29823;47.404;8.566;2022-08-07T13:39:53;96746.16;;;22.97;97.66
39243;BME280;29823;47.404;8.566;2022-08-07T13:42:45;96752.91;;;23.13;99.10
39243;BME280;29823;47.404;8.566;2022-08-07T13:45:17;96751.94;;;23.09;96.64
39243;BME280;29823;47.404;8.566;2022-08-07T13:48:07;96756.78;;;23.26;94.44
39243;BME280;29823;47.404;8.566;2022-08-07T13:50:57;96753.97;;;23.17;92.74
39243;BME280;29823;47.404;8.566;2022-08-07T13:53:52;96740.81;;;23.19;88.46
39243;BME280;29823;47.404;8.566;2022-08-07T13:56:27;96755.91;;;23.52;88.62
39243;BME280;29823;47.404;8.566;2022-08-07T13:59:10;96755.91;;;23.88;85.42
39243;BME280;29823;47.404;8.566;2022-08-07T14:01:47;96747.38;;;23.67;90.41
39243;BME280;29823;47.404;8.566;2022-08-07T14:04:31;96748.25;;;23.76;84.77